createdAt,value
2022-08-30T05:01:01.722Z,19.70
2022-08-30T05:06:06.487Z,19.70
2022-08-30T05:11:10.354Z,19.70
2022-08-30T05:16:17.883Z,19.70
2022-08-30T05:21:24.043Z,19.70
2022-08-30T05:26:30.070Z,19.70
2022-08-30T05:31:37.256Z,19.70
2022-08-30T05:36:41.262Z,19.60
2022-08-30T05:41:44.938Z,19.60
2022-08-30T05:46:49.984Z,19.60
2022-08-30T05:51:53.560Z,19.70
2022-08-30T05:56:57.161Z,19.70
2022-08-30T06:02:02.228Z,19.70
2022-08-30T06:07:07.951Z,19.60
2022-08-30T06:12:13.182Z,19.60
2022-08-30T06:17:18.451Z,19.60
2022-08-30T06:22:22.039Z,19.60
2022-08-30T06:27:25.654Z,19.60
2022-08-30T06:32:30.597Z,19.70
2022-08-30T06:37:34.558Z,19.70
2022-08-30T06:42:38.282Z,19.80
2022-08-30T06:47:44.986Z,20.00
2022-08-30T06:58:30.377Z,20.20
2022-08-30T07:03:35.941Z,20.30
2022-08-30T07:08:40.285Z,20.50
2022-08-30T07:13:45.641Z,20.60
2022-08-30T07:18:54.981Z,20.80
2022-08-30T07:24:00.370Z,21.00
2022-08-30T07:29:04.821Z,21.10
2022-08-30T07:34:09.875Z,21.30
2022-08-30T07:39:13.407Z,21.50
2022-08-30T07:44:16.993Z,21.70
2022-08-30T07:49:22.666Z,21.90
2022-08-30T07:54:26.562Z,22.10
2022-08-30T07:59:33.030Z,22.40
2022-08-30T08:04:40.986Z,22.50
2022-08-30T08:09:44.601Z,22.70
2022-08-30T08:14:48.143Z,22.90
2022-08-30T08:19:53.026Z,23.10
2022-08-30T08:24:56.718Z,23.30
2022-08-30T08:30:00.543Z,23.50
2022-08-30T08:35:06.222Z,23.80
2022-08-30T08:40:14.766Z,24.00
2022-08-30T08:45:24.945Z,24.20
2022-08-30T08:50:30.747Z,24.40
2022-08-30T08:55:35.513Z,24.70
2022-08-30T09:00:39.154Z,25.10
2022-08-30T09:05:45.574Z,25.60
2022-08-30T09:10:58.549Z,26.20
2022-08-30T09:16:02.336Z,26.80
2022-08-30T09:21:09.649Z,27.30
2022-08-30T09:26:13.803Z,28.00
2022-08-30T09:31:21.650Z,28.40
2022-08-30T09:36:31.902Z,28.90
2022-08-30T09:41:42.656Z,29.40
2022-08-30T09:46:49.778Z,30.00
2022-08-30T09:52:07.662Z,30.60
2022-08-30T09:57:21.947Z,31.20
2022-08-30T10:02:56.380Z,31.40
2022-08-30T10:08:12.689Z,31.60
2022-08-30T10:13:44.525Z,32.20
2022-08-30T10:18:59.768Z,32.80
2022-08-30T10:24:08.810Z,32.90
2022-08-30T10:29:16.268Z,33.20
2022-08-30T10:34:25.502Z,33.60
2022-08-30T10:39:37.345Z,33.90
2022-08-30T10:44:44.449Z,34.10
2022-08-30T10:49:51.156Z,34.50
2022-08-30T10:55:00.258Z,35.10
2022-08-30T11:00:09.153Z,35.70
2022-08-30T11:05:27.589Z,36.30
2022-08-30T11:10:49.873Z,36.60
2022-08-30T11:15:58.878Z,36.60
2022-08-30T11:21:21.987Z,36.70
2022-08-30T11:26:58.842Z,37.00
2022-08-30T11:32:26.162Z,37.30
2022-08-30T11:37:39.728Z,37.50
2022-08-30T11:42:46.827Z,37.70
2022-08-30T11:47:54.052Z,38.10
2022-08-30T11:53:02.968Z,38.30
2022-08-30T11:58:20.920Z,39.10
2022-08-30T12:03:33.752Z,39.90
2022-08-30T12:09:02.582Z,40.30
2022-08-30T12:14:09.618Z,40.60
2022-08-30T12:19:20.139Z,41.10
2022-08-30T12:24:28.553Z,41.30
2022-08-30T12:29:33.519Z,41.10
2022-08-30T12:34:50.545Z,41.50
2022-08-30T12:40:04.419Z,42.20
2022-08-30T12:45:14.806Z,42.20
2022-08-30T12:50:22.289Z,42.40
2022-08-30T12:55:30.227Z,42.10
2022-08-30T13:00:36.730Z,42.10
2022-08-30T13:05:50.117Z,42.00
2022-08-30T13:11:03.374Z,41.70
2022-08-30T13:16:23.273Z,41.60
2022-08-30T13:21:29.741Z,42.00
2022-08-30T13:26:35.369Z,42.10
2022-08-30T13:31:40.512Z,42.20
2022-08-30T13:36:48.334Z,42.10
2022-08-30T13:41:52.466Z,41.70
2022-08-30T13:47:32.026Z,41.70
2022-08-30T13:52:24.627Z,41.90
2022-08-30T14:02:57.633Z,42.20
2022-08-30T14:13:38.817Z,41.10
2022-08-30T14:19:03.675Z,41.10
2022-08-30T14:24:09.669Z,41.30
2022-08-30T14:29:16.571Z,41.30
2022-08-30T14:34:23.006Z,41.10
2022-08-30T14:39:27.284Z,40.60
2022-08-30T14:44:45.660Z,40.00
2022-08-30T14:49:59.000Z,39.40
2022-08-30T14:55:08.913Z,38.80
2022-08-30T15:00:15.845Z,38.00
2022-08-30T15:05:21.521Z,37.20
2022-08-30T15:10:26.380Z,36.60
2022-08-30T15:15:30.022Z,36.10
2022-08-30T15:20:34.938Z,35.60
2022-08-30T15:25:39.540Z,35.10
2022-08-30T15:30:45.993Z,34.70
2022-08-30T15:35:52.379Z,34.30
2022-08-30T15:41:00.010Z,34.10
2022-08-30T15:46:20.603Z,33.80
2022-08-30T15:51:26.351Z,33.60
2022-08-30T15:56:31.305Z,33.40
2022-08-30T16:01:34.770Z,33.20
2022-08-30T16:06:41.812Z,33.00
2022-08-30T16:11:45.523Z,32.80
2022-08-30T16:16:49.097Z,32.60
2022-08-30T16:21:54.117Z,32.50
2022-08-30T16:26:58.558Z,32.40
2022-08-30T16:32:02.167Z,32.40
2022-08-30T16:37:07.103Z,32.20
2022-08-30T16:42:11.804Z,32.20
2022-08-30T16:47:15.403Z,32.10
2022-08-30T16:52:20.349Z,32.00
2022-08-30T16:57:23.979Z,31.80
2022-08-30T17:02:27.824Z,31.70
2022-08-30T17:07:32.864Z,31.50
2022-08-30T17:12:36.395Z,31.50
2022-08-30T17:17:43.191Z,31.40
2022-08-30T17:22:48.336Z,31.30
2022-08-30T17:27:52.099Z,31.20
2022-08-30T17:32:55.698Z,31.10
2022-08-30T17:38:00.628Z,30.90
2022-08-30T17:43:05.353Z,30.80
2022-08-30T17:48:09.969Z,30.80
2022-08-30T17:53:14.876Z,30.60
2022-08-30T17:58:18.567Z,30.60
2022-08-30T18:03:25.450Z,30.40
2022-08-30T18:08:30.334Z,30.40
2022-08-30T18:13:34.198Z,30.30
2022-08-30T18:18:38.368Z,30.20
2022-08-30T18:23:43.336Z,30.00
2022-08-30T18:28:49.818Z,29.90
2022-08-30T18:33:53.548Z,29.80
2022-08-30T18:38:58.618Z,29.60
2022-08-30T18:44:26.204Z,29.40
2022-08-30T18:49:26.500Z,29.10
2022-08-30T18:54:31.701Z,28.90
2022-08-30T18:59:36.830Z,28.60
2022-08-30T19:04:42.752Z,28.40
2022-08-30T19:09:48.237Z,28.30
2022-08-30T19:14:51.787Z,28.20
2022-08-30T19:19:56.710Z,28.10
2022-08-30T19:25:01.674Z,28.10
2022-08-30T19:30:07.464Z,27.90
2022-08-30T19:35:12.612Z,27.80
2022-08-30T19:40:20.387Z,27.70
2022-08-30T19:45:24.442Z,27.60
2022-08-30T19:50:28.009Z,27.50
2022-08-30T19:55:34.251Z,27.30
2022-08-30T20:00:39.258Z,27.20
2022-08-30T20:05:48.808Z,27.10
2022-08-30T20:10:56.754Z,27.00
2022-08-30T20:16:00.587Z,26.90
2022-08-30T20:21:04.446Z,26.80
2022-08-30T20:26:18.345Z,26.70
2022-08-30T20:31:21.941Z,26.70
2022-08-30T20:36:25.558Z,26.60
2022-08-30T20:41:31.232Z,26.60
2022-08-30T20:46:34.826Z,26.50
2022-08-30T20:51:39.456Z,26.40
2022-08-30T20:56:44.438Z,26.30
2022-08-30T21:01:48.088Z,26.10
2022-08-30T21:06:56.567Z,26.00
2022-08-30T21:12:01.466Z,25.90
2022-08-30T21:17:05.384Z,25.80
2022-08-30T21:22:09.221Z,25.70
2022-08-30T21:27:14.474Z,25.70
2022-08-30T21:32:18.077Z,25.60
2022-08-30T21:37:21.740Z,25.60
2022-08-30T21:42:26.753Z,25.50
2022-08-30T21:47:30.525Z,25.50
2022-08-30T21:52:35.178Z,25.40
2022-08-30T21:57:40.071Z,25.40
2022-08-30T22:02:43.628Z,25.30
2022-08-30T22:07:47.201Z,25.20
2022-08-30T22:12:52.212Z,25.10
2022-08-30T22:17:55.811Z,25.10
2022-08-30T22:22:59.482Z,25.00
2022-08-30T22:28:04.811Z,24.90
